Time;durP1;ratioP1;P1;durP2;ratioP2;P2;SDS_P1;SDS_P2;PMS_P1;PMS_P2;Temp;Humidity;BMP_temperature;BMP_pressure;BME280_temperature;BME280_humidity;BME280_pressure;Samples;Min_cycle;Max_cycle;Signal;HPM_P1;HPM_P2
2021/01/15 00:01:51;;;;;;;11.23;9.37;;;;;;;-0.71;93.47;151190.06;5093236;28;20437;-85
2021/01/15 00:04:26;;;;;;;11.27;7.33;;;;;;;-0.80;94.92;151167.00;5097949;28;20451;-85
2021/01/15 00:07:05;;;;;;;12.73;8.07;;;;;;;-0.84;95.49;151158.03;5092143;28;20530;-86
2021/01/15 00:09:42;;;;;;;14.23;8.30;;;;;;;-0.83;95.47;151159.31;5073862;28;20444;-86
2021/01/15 00:12:17;;;;;;;14.80;8.27;;;;;;;-0.85;94.53;151154.19;5093147;28;20439;-86
2021/01/15 00:14:52;;;;;;;11.00;8.10;;;;;;;-0.85;95.11;151155.44;5076172;28;20448;-86
2021/01/15 00:17:33;;;;;;;12.57;9.00;;;;;;;-0.82;94.52;151161.91;5091450;28;20519;-86
2021/01/15 00:20:10;;;;;;;11.30;8.27;;;;;;;-0.82;94.24;151163.16;5092494;28;20448;-86
2021/01/15 00:22:45;;;;;;;14.70;8.67;;;;;;;-0.86;95.01;151152.91;5092540;28;20522;-86
2021/01/15 00:25:21;;;;;;;10.77;6.77;;;;;;;-0.83;93.83;151159.31;5093609;28;20436;-86
2021/01/15 00:27:57;;;;;;;12.10;7.57;;;;;;;-0.84;94.11;151156.72;5091954;28;20431;-87
2021/01/15 00:30:32;;;;;;;8.93;6.93;;;;;;;-0.79;94.20;151169.56;5089502;28;20924;-87
2021/01/15 00:33:07;;;;;;;9.60;7.40;;;;;;;-0.83;93.54;151159.31;5072270;28;20433;-87
2021/01/15 00:35:43;;;;;;;12.57;8.17;;;;;;;-0.84;93.76;151158.03;5094807;28;20471;-86
2021/01/15 00:38:18;;;;;;;10.27;7.90;;;;;;;-0.82;92.64;151161.91;5092480;28;21300;-87
2021/01/15 00:40:59;;;;;;;11.70;7.93;;;;;;;-0.86;92.10;151152.91;5088969;28;20824;-87
2021/01/15 00:43:35;;;;;;;10.27;6.70;;;;;;;-0.80;92.37;151167.00;5088770;28;20438;-87
2021/01/15 00:46:14;;;;;;;9.10;5.63;;;;;;;-0.87;91.88;151149.03;5092718;28;20468;-87
2021/01/15 00:48:49;;;;;;;10.80;6.20;;;;;;;-0.87;91.20;151149.03;5092182;28;20839;-87
2021/01/15 00:51:25;;;;;;;9.43;5.93;;;;;;;-0.84;90.50;151158.03;5072308;28;20878;-87
2021/01/15 00:54:00;;;;;;;9.93;6.10;;;;;;;-0.84;90.46;151156.72;5056614;28;20415;-88
2021/01/15 00:56:37;;;;;;;9.73;6.63;;;;;;;-0.88;89.32;151146.50;5108150;28;20566;-87
2021/01/15 00:59:17;;;;;;;9.57;5.87;;;;;;;-0.94;89.89;151132.38;5073345;28;20441;-88
2021/01/15 01:02:03;;;;;;;7.80;5.50;;;;;;;-0.98;88.63;151120.88;5089940;28;20440;-88
2021/01/15 01:04:40;;;;;;;8.97;5.70;;;;;;;-0.96;89.55;151125.97;5085751;28;20444;-88
2021/01/15 01:07:15;;;;;;;10.10;5.57;;;;;;;-0.92;89.01;151136.22;5091898;28;20795;-87
2021/01/15 01:09:50;;;;;;;7.83;5.17;;;;;;;-0.94;89.48;151131.09;5091967;28;20455;-88
2021/01/15 01:12:27;;;;;;;6.60;4.80;;;;;;;-0.95;89.35;151129.81;5092108;28;20443;-88
2021/01/15 01:15:02;;;;;;;6.93;4.90;;;;;;;-0.94;89.05;151132.38;5091779;28;20444;-88
2021/01/15 01:17:38;;;;;;;7.33;5.57;;;;;;;-0.91;89.40;151140.09;5091693;28;21281;-88
2021/01/15 01:20:14;;;;;;;5.13;4.43;;;;;;;-0.96;87.98;151125.97;5092274;28;20444;-88
2021/01/15 01:22:50;;;;;;;9.10;5.30;;;;;;;-0.96;86.76;151125.97;5091551;28;20441;-88
2021/01/15 01:25:25;;;;;;;6.63;4.73;;;;;;;-0.96;86.52;151125.97;5094182;28;20436;-88
2021/01/15 01:28:01;;;;;;;6.90;4.70;;;;;;;-0.92;87.59;151136.22;5095795;28;20433;-88
2021/01/15 01:30:37;;;;;;;5.60;4.53;;;;;;;-0.95;86.29;151128.50;5087180;28;20936;-88
2021/01/15 01:33:13;;;;;;;5.20;4.43;;;;;;;-0.96;85.63;151125.97;5075740;28;20427;-88
2021/01/15 01:35:49;;;;;;;6.80;4.23;;;;;;;-0.90;85.02;151141.38;5087273;28;20459;-88
2021/01/15 01:38:24;;;;;;;4.90;4.03;;;;;;;-0.92;86.28;151136.22;5096073;28;20443;-88
2021/01/15 01:40:59;;;;;;;16.30;5.30;;;;;;;-0.81;84.80;151164.44;5096353;28;20534;-89
2021/01/15 01:43:35;;;;;;;6.13;4.43;;;;;;;-0.87;84.73;151149.03;5095914;28;21070;-88
2021/01/15 01:46:11;;;;;;;4.93;4.07;;;;;;;-1.00;83.48;151115.69;5077300;28;20430;-88
2021/01/15 01:48:46;;;;;;;6.17;4.13;;;;;;;-1.08;83.54;151096.47;5095995;28;20445;-89
2021/01/15 01:51:21;;;;;;;4.83;3.77;;;;;;;-1.06;83.22;151101.59;5080809;28;20445;-88
2021/01/15 01:53:56;;;;;;;4.70;3.83;;;;;;;-1.04;85.38;151106.75;5092301;28;20547;-89
2021/01/15 01:56:32;;;;;;;6.63;3.60;;;;;;;-1.01;83.36;151113.16;5076006;28;20468;-89
2021/01/15 01:59:08;;;;;;;7.63;4.93;;;;;;;-1.02;84.52;151111.88;5096941;28;20431;-89
2021/01/15 02:01:44;;;;;;;5.33;3.70;;;;;;;-1.08;84.25;151095.19;5086051;28;20949;-89
2021/01/15 02:04:19;;;;;;;6.60;3.30;;;;;;;-1.04;83.46;151105.47;5115904;28;20443;-89
2021/01/15 02:06:55;;;;;;;4.47;3.63;;;;;;;-0.97;84.16;151123.41;5093335;27;20436;-89
2021/01/15 02:09:40;;;;;;;4.93;3.60;;;;;;;-1.09;81.03;151092.66;5075707;28;20449;-89
2021/01/15 02:12:21;;;;;;;4.00;3.40;;;;;;;-1.09;83.34;151092.66;5075207;28;20520;-89
2021/01/15 02:15:04;;;;;;;3.90;2.90;;;;;;;-1.13;81.50;151082.38;5083898;28;20804;-88
2021/01/15 02:17:46;;;;;;;6.10;3.57;;;;;;;-1.15;80.97;151078.56;5104735;28;20437;-89
2021/01/15 02:20:44;;;;;;;5.10;3.20;;;;;;;-1.13;82.27;151083.66;5095581;28;20447;-90
2021/01/15 02:23:25;;;;;;;4.57;3.20;;;;;;;-1.13;81.09;151082.38;5095659;28;20527;-89
2021/01/15 02:26:24;;;;;;;5.23;3.37;;;;;;;-1.14;81.57;151079.84;5095321;28;20424;-90
2021/01/15 02:29:17;;;;;;;2.90;2.40;;;;;;;-1.17;81.95;151073.44;5094988;28;20444;-89
2021/01/15 02:32:22;;;;;;;4.67;3.40;;;;;;;-1.16;81.50;151074.66;5074671;28;20436;-90
2021/01/15 02:35:25;;;;;;;3.60;3.30;;;;;;;-1.26;79.91;151051.63;5062551;28;20954;-90
2021/01/15 02:38:21;;;;;;;3.97;3.10;;;;;;;-1.23;81.04;151059.34;5073876;28;20433;-90
2021/01/15 02:41:06;;;;;;;4.57;3.40;;;;;;;-1.19;81.89;151067.03;5081015;28;20485;-90
2021/01/15 02:43:42;;;;;;;2.73;2.53;;;;;;;-1.23;80.42;151059.34;5116580;28;20431;-89
2021/01/15 02:46:25;;;;;;;3.47;2.80;;;;;;;-1.20;80.13;151065.72;5100704;28;20473;-90
2021/01/15 02:49:01;;;;;;;3.13;2.70;;;;;;;-1.26;79.75;151050.34;5095403;28;20450;-90
2021/01/15 02:51:39;;;;;;;5.60;3.30;;;;;;;-1.27;80.27;151049.06;5094972;28;20944;-90
2021/01/15 02:54:14;;;;;;;4.40;3.00;;;;;;;-1.31;81.37;151037.53;5094446;28;20408;-90
2021/01/15 02:56:50;;;;;;;4.20;3.37;;;;;;;-1.30;81.25;151041.34;5093914;28;20885;-90
2021/01/15 02:59:25;;;;;;;4.33;3.07;;;;;;;-1.31;82.14;151038.81;5079084;28;20463;-89
2021/01/15 03:02:06;;;;;;;6.60;3.10;;;;;;;-1.33;81.99;151032.41;5090846;28;20535;-90
2021/01/15 03:04:51;;;;;;;4.90;3.37;;;;;;;-1.33;82.05;151033.69;5074178;28;20751;-90
2021/01/15 03:07:28;;;;;;;3.60;2.80;;;;;;;-1.32;82.60;151036.22;5092300;28;20435;-90
2021/01/15 03:10:05;;;;;;;4.53;3.43;;;;;;;-1.36;82.78;151024.72;5109992;28;20456;-90
2021/01/15 03:12:41;;;;;;;2.90;2.70;;;;;;;-1.33;81.90;151033.69;5109529;28;20446;-90
2021/01/15 03:15:19;;;;;;;3.00;2.60;;;;;;;-1.38;81.06;151019.59;5108614;28;20483;-90
2021/01/15 03:17:54;;;;;;;3.53;2.77;;;;;;;-1.36;82.22;151024.72;5094813;28;20432;-90
2021/01/15 03:20:31;;;;;;;3.60;2.70;;;;;;;-1.35;82.44;151028.53;5086288;28;20444;-90
2021/01/15 03:23:07;;;;;;;3.43;2.50;;;;;;;-1.43;80.86;151006.78;5058101;28;20494;-90
2021/01/15 03:25:42;;;;;;;2.90;2.60;;;;;;;-1.46;81.18;151000.38;5083375;28;20517;-90
2021/01/15 03:28:17;;;;;;;4.90;3.03;;;;;;;-1.42;81.58;151009.31;5093664;28;20434;-90
2021/01/15 03:30:52;;;;;;;4.07;2.70;;;;;;;-1.50;80.21;150990.09;5111086;28;20462;-90
2021/01/15 03:33:27;;;;;;;4.40;3.27;;;;;;;-1.53;81.19;150981.13;5095163;28;20411;-90
2021/01/15 03:36:04;;;;;;;3.33;2.60;;;;;;;-1.54;82.30;150979.88;5094864;28;20897;-90
2021/01/15 03:38:39;;;;;;;3.10;2.80;;;;;;;-1.55;81.07;150977.28;5093685;28;20450;-90
2021/01/15 03:41:15;;;;;;;4.97;3.33;;;;;;;-1.59;81.47;150967.03;5078188;28;20435;-90
2021/01/15 03:43:50;;;;;;;5.53;4.47;;;;;;;-1.55;83.76;150977.28;5093607;28;21008;-90
2021/01/15 03:46:25;;;;;;;5.90;3.73;;;;;;;-1.58;83.03;150969.59;5110366;28;20441;-90
2021/01/15 03:49:01;;;;;;;5.60;3.60;;;;;;;-1.62;82.46;150959.38;5092845;28;20438;-90
2021/01/15 03:51:38;;;;;;;5.93;3.80;;;;;;;-1.66;82.27;150949.09;5093473;28;20849;-90
2021/01/15 03:54:13;;;;;;;5.83;3.53;;;;;;;-1.68;82.70;150943.97;5077829;28;20829;-90
2021/01/15 03:56:50;;;;;;;6.53;4.50;;;;;;;-1.73;81.89;150931.19;5092980;28;20486;-90
2021/01/15 03:59:25;;;;;;;5.00;3.43;;;;;;;-1.70;81.96;150938.88;5093520;28;20449;-90
2021/01/15 04:02:00;;;;;;;5.77;4.03;;;;;;;-1.68;83.84;150943.97;5081140;28;20417;-90
2021/01/15 04:04:35;;;;;;;4.70;3.50;;;;;;;-1.66;84.70;150949.09;5094218;28;20405;-90
2021/01/15 04:07:12;;;;;;;4.00;3.37;;;;;;;-1.68;84.57;150943.97;5074363;28;20494;-90
2021/01/15 04:09:47;;;;;;;4.00;2.97;;;;;;;-1.74;84.18;150928.59;5091009;28;20533;-90
2021/01/15 04:12:23;;;;;;;4.90;3.53;;;;;;;-1.74;82.14;150927.31;5093486;28;20444;-90
2021/01/15 04:14:58;;;;;;;6.07;3.27;;;;;;;-1.74;83.83;150928.59;5093598;28;20528;-90
2021/01/15 04:17:34;;;;;;;4.97;3.83;;;;;;;-1.71;84.17;150936.28;5093360;28;20420;-90
2021/01/15 04:20:11;;;;;;;4.20;2.90;;;;;;;-1.71;84.58;150936.28;5083340;28;20446;-90
2021/01/15 04:22:48;;;;;;;4.60;3.13;;;;;;;-1.79;83.87;150915.78;5110114;28;20443;-90
2021/01/15 04:25:23;;;;;;;4.30;3.27;;;;;;;-1.77;85.36;150920.91;5090015;28;20920;-90
2021/01/15 04:28:02;;;;;;;5.27;3.60;;;;;;;-1.81;84.66;150910.69;5073015;28;20446;-90
2021/01/15 04:30:37;;;;;;;3.97;3.17;;;;;;;-1.82;84.05;150908.09;5072824;28;20409;-90
2021/01/15 04:33:13;;;;;;;3.70;2.50;;;;;;;-1.79;84.33;150915.78;5072860;28;20438;-90
2021/01/15 04:35:49;;;;;;;3.40;2.97;;;;;;;-1.77;85.03;150919.66;5083331;28;20462;-90
2021/01/15 04:38:25;;;;;;;3.60;2.80;;;;;;;-1.79;83.94;150915.78;5073182;28;20434;-90
2021/01/15 04:41:00;;;;;;;3.83;2.90;;;;;;;-1.78;83.85;150918.38;5085805;28;20421;-90
2021/01/15 04:43:37;;;;;;;4.90;3.00;;;;;;;-1.79;83.51;150914.50;5094379;28;20420;-90
2021/01/15 04:46:13;;;;;;;6.07;3.60;;;;;;;-1.80;84.58;150913.22;5072939;28;20412;-90
2021/01/15 04:48:50;;;;;;;4.70;3.43;;;;;;;-1.81;83.80;150910.69;5089383;28;20438;-90
2021/01/15 04:51:45;;;;;;;5.67;3.27;;;;;;;-1.79;83.85;150914.50;5073498;28;20390;-90
2021/01/15 04:54:33;;;;;;;4.50;3.40;;;;;;;-1.82;83.63;150908.09;5097443;28;20434;-90
2021/01/15 04:57:10;;;;;;;4.57;3.23;;;;;;;-1.83;84.48;150906.81;5092489;28;20480;-90
2021/01/15 04:59:46;;;;;;;5.90;3.33;;;;;;;-1.82;85.69;150908.09;5098469;28;20429;-90
2021/01/15 05:02:22;;;;;;;4.77;3.43;;;;;;;-1.85;83.96;150901.69;5108032;28;20412;-89
2021/01/15 05:04:59;;;;;;;3.20;2.90;;;;;;;-1.93;85.06;150881.19;5099690;28;20419;-90
2021/01/15 05:07:35;;;;;;;3.73;2.93;;;;;;;-1.98;85.58;150867.09;5096437;28;20448;-90
2021/01/15 05:10:13;;;;;;;6.13;4.20;;;;;;;-2.00;84.41;150862.00;5112620;28;20408;-90
2021/01/15 05:12:50;;;;;;;4.20;3.47;;;;;;;-2.01;85.19;150859.41;5097702;28;20788;-90
2021/01/15 05:15:25;;;;;;;6.00;3.73;;;;;;;-2.05;85.42;150850.47;5096476;28;20453;-90
2021/01/15 05:18:04;;;;;;;3.73;3.33;;;;;;;-2.02;86.00;150856.88;5113569;28;20494;-90
2021/01/15 05:20:39;;;;;;;4.40;3.67;;;;;;;-2.02;85.20;150858.16;5096426;28;20445;-90
2021/01/15 05:23:16;;;;;;;5.50;3.77;;;;;;;-2.05;86.12;150850.47;5096298;28;20468;-90
2021/01/15 05:25:52;;;;;;;4.93;3.90;;;;;;;-2.05;87.75;150849.19;5097340;28;20429;-89
2021/01/15 05:28:28;;;;;;;5.00;3.97;;;;;;;-2.07;86.10;150844.06;5080348;28;20414;-90
2021/01/15 05:31:03;;;;;;;4.40;3.47;;;;;;;-2.07;84.32;150844.06;5096065;28;20470;-89
2021/01/15 05:33:38;;;;;;;5.10;3.70;;;;;;;-2.08;85.08;150842.78;5096468;28;20990;-89
2021/01/15 05:36:31;;;;;;;4.90;3.97;;;;;;;-2.11;86.38;150835.09;5096083;28;20477;-89
2021/01/15 05:39:09;;;;;;;4.03;3.63;;;;;;;-2.13;85.94;150828.69;5097010;28;20434;-89
2021/01/15 05:41:46;;;;;;;5.50;4.60;;;;;;;-2.17;85.80;150818.47;5113821;28;20448;-89
2021/01/15 05:44:26;;;;;;;5.17;3.40;;;;;;;-2.18;86.10;150817.19;5095948;28;20429;-89
2021/01/15 05:47:02;;;;;;;6.53;4.10;;;;;;;-2.20;85.99;150810.78;5081361;28;20402;-90
2021/01/15 05:49:37;;;;;;;6.87;4.10;;;;;;;-2.25;85.98;150797.97;5080407;28;20445;-87
2021/01/15 05:52:13;;;;;;;6.57;4.53;;;;;;;-2.31;86.18;150782.59;5095680;28;20783;-90
2021/01/15 05:54:49;;;;;;;4.43;3.70;;;;;;;-2.39;87.14;150763.41;5096897;28;20440;-89
2021/01/15 05:57:26;;;;;;;11.37;5.30;;;;;;;-2.43;86.62;150751.84;5022146;28;20479;-89
2021/01/15 06:00:01;;;;;;;7.93;4.27;;;;;;;-2.53;86.08;150727.53;5081997;28;20592;-90
2021/01/15 06:02:37;;;;;;;6.93;3.87;;;;;;;-2.58;86.05;150716.03;5081792;28;20469;-89
2021/01/15 06:05:17;;;;;;;5.53;4.67;;;;;;;-2.62;84.99;150704.53;5095450;28;20437;-89
2021/01/15 06:07:54;;;;;;;8.87;5.33;;;;;;;-2.63;85.22;150701.94;5081565;28;20441;-88
2021/01/15 06:10:42;;;;;;;4.43;3.60;;;;;;;-2.61;84.89;150708.34;5015517;28;20427;-89
2021/01/15 06:13:37;;;;;;;5.53;4.93;;;;;;;-2.60;83.99;150710.91;5097953;28;20445;-89
2021/01/15 06:16:18;;;;;;;5.60;4.10;;;;;;;-2.64;84.48;150700.66;5081533;28;20479;-89
2021/01/15 06:18:58;;;;;;;4.57;3.77;;;;;;;-2.66;84.12;150695.53;5073305;28;20421;-89
2021/01/15 06:21:35;;;;;;;5.20;4.50;;;;;;;-2.70;83.94;150685.28;5094489;28;20433;-88
2021/01/15 06:24:11;;;;;;;5.90;4.90;;;;;;;-2.67;83.92;150692.97;5079059;28;20419;-89
2021/01/15 06:27:04;;;;;;;6.70;5.37;;;;;;;-2.65;84.78;150698.06;5094671;28;20432;-88
2021/01/15 06:29:43;;;;;;;8.50;4.67;;;;;;;-2.67;84.64;150692.97;5097594;28;20430;-89
2021/01/15 06:32:25;;;;;;;5.60;4.20;;;;;;;-2.69;84.93;150687.84;5094644;28;20447;-89
2021/01/15 06:35:01;;;;;;;5.27;4.20;;;;;;;-2.69;84.77;150686.56;5082449;28;20445;-89
2021/01/15 06:37:36;;;;;;;6.80;5.00;;;;;;;-2.71;85.79;150682.75;5073476;28;20477;-88
2021/01/15 06:40:13;;;;;;;5.00;3.90;;;;;;;-2.72;85.38;150678.88;5066214;28;20970;-88
2021/01/15 06:42:49;;;;;;;8.20;5.00;;;;;;;-2.75;85.33;150672.47;5077825;28;20419;-89
2021/01/15 06:45:26;;;;;;;5.87;4.03;;;;;;;-2.74;85.65;150673.78;5110260;28;20904;-89
2021/01/15 06:48:08;;;;;;;6.20;3.87;;;;;;;-2.73;86.26;150677.63;5080346;28;20423;-90
2021/01/15 06:50:45;;;;;;;5.27;4.17;;;;;;;-2.76;85.30;150669.94;5072495;28;20404;-89
2021/01/15 06:53:24;;;;;;;7.30;4.90;;;;;;;-2.76;86.40;150668.66;5059930;28;20536;-88
2021/01/15 06:56:00;;;;;;;7.17;4.60;;;;;;;-2.76;86.46;150669.94;5094076;28;20459;-89
2021/01/15 06:58:38;;;;;;;8.77;5.00;;;;;;;-2.81;86.49;150655.88;5100493;28;20504;-89
2021/01/15 07:01:19;;;;;;;7.30;5.40;;;;;;;-2.79;87.26;150662.25;5088679;28;20433;-88
2021/01/15 07:04:29;;;;;;;9.30;6.03;;;;;;;-2.82;87.37;150653.28;5083333;28;20421;-89
2021/01/15 07:07:13;;;;;;;6.50;5.60;;;;;;;-2.85;87.63;150646.91;5089196;28;20433;-89
2021/01/15 07:09:48;;;;;;;7.17;5.33;;;;;;;-2.83;88.01;150650.75;5109750;28;20426;-89
2021/01/15 07:12:24;;;;;;;9.77;6.00;;;;;;;-2.83;89.03;150652.00;5095312;28;20415;-89
2021/01/15 07:15:01;;;;;;;9.23;5.53;;;;;;;-2.83;88.93;150652.00;5094269;28;20404;-90
2021/01/15 07:17:38;;;;;;;9.87;5.93;;;;;;;-2.84;89.69;150649.47;5094201;28;20535;-90
2021/01/15 07:20:15;;;;;;;11.00;6.03;;;;;;;-2.90;89.70;150632.81;5111200;28;20518;-90
2021/01/15 07:22:51;;;;;;;6.77;4.90;;;;;;;-2.91;90.37;150631.53;5077523;28;20830;-90
2021/01/15 07:25:27;;;;;;;9.13;5.73;;;;;;;-2.89;90.59;150636.69;5078237;28;20433;-90
2021/01/15 07:28:03;;;;;;;9.90;6.17;;;;;;;-2.85;91.44;150645.59;5086258;28;20499;-90
2021/01/15 07:30:38;;;;;;;10.53;6.97;;;;;;;-2.84;90.75;150648.19;5081496;28;20514;-90
2021/01/15 07:33:15;;;;;;;8.87;7.23;;;;;;;-2.84;91.09;150649.47;5095024;28;20449;-89
2021/01/15 07:35:51;;;;;;;8.70;6.00;;;;;;;-2.77;91.49;150667.38;5093765;28;20808;-90
2021/01/15 07:38:26;;;;;;;10.77;6.90;;;;;;;-2.77;91.30;150667.38;5092391;28;20430;-90
2021/01/15 07:41:01;;;;;;;10.23;6.57;;;;;;;-2.77;91.45;150667.38;5084344;28;20891;-90
2021/01/15 07:43:37;;;;;;;10.80;6.60;;;;;;;-2.79;92.41;150660.97;5101074;28;20922;-89
2021/01/15 07:46:16;;;;;;;7.87;6.17;;;;;;;-2.80;91.55;150658.41;5114417;28;20447;-90
2021/01/15 07:49:01;;;;;;;8.80;6.53;;;;;;;-2.76;92.99;150669.94;5106559;28;20403;-90
2021/01/15 07:51:36;;;;;;;13.33;6.90;;;;;;;-2.69;92.37;150687.84;5085350;28;20945;-91
2021/01/15 07:54:11;;;;;;;8.93;7.43;;;;;;;-2.69;91.95;150687.84;5095506;28;20799;-91
2021/01/15 07:56:47;;;;;;;10.80;7.50;;;;;;;-2.62;92.26;150705.75;5089622;28;20456;-91
2021/01/15 07:59:31;;;;;;;9.00;7.60;;;;;;;-2.62;91.65;150705.75;5072863;28;20445;-91
2021/01/15 08:02:06;;;;;;;10.17;7.80;;;;;;;-2.64;91.82;150700.66;5095818;28;20952;-89
2021/01/15 08:04:43;;;;;;;9.30;7.37;;;;;;;-2.57;92.49;150717.31;5093227;28;20433;-90
2021/01/15 08:07:28;;;;;;;10.50;7.30;;;;;;;-2.56;92.23;150721.13;5092733;28;20421;-88
2021/01/15 08:10:09;;;;;;;13.60;8.13;;;;;;;-2.53;92.12;150728.81;5106892;28;20445;-89
2021/01/15 08:12:44;;;;;;;13.03;8.10;;;;;;;-2.48;92.48;150741.63;5093890;28;20419;-90
2021/01/15 08:15:30;;;;;;;11.63;8.20;;;;;;;-2.48;91.19;150741.63;5093509;28;20412;-91
2021/01/15 08:18:06;;;;;;;12.27;8.30;;;;;;;-2.42;91.71;150755.72;5096041;28;20423;-91
2021/01/15 08:20:50;;;;;;;12.67;9.37;;;;;;;-2.32;91.71;150780.03;5108022;28;20474;-91
2021/01/15 08:23:27;;;;;;;9.40;8.40;;;;;;;-2.24;90.28;150800.50;5071982;28;20432;-90
2021/01/15 08:26:30;;;;;;;11.47;9.20;;;;;;;-2.16;90.91;150821.00;5086177;28;20647;-91
2021/01/15 08:29:06;;;;;;;16.37;9.07;;;;;;;-2.11;89.52;150833.81;5091817;28;20444;-90
2021/01/15 08:31:42;;;;;;;12.53;8.00;;;;;;;-2.13;89.51;150830.00;5081826;28;20445;-91
2021/01/15 08:34:19;;;;;;;12.13;7.37;;;;;;;-2.17;89.28;150818.47;5090002;28;20543;-90
2021/01/15 08:36:58;;;;;;;12.47;8.17;;;;;;;-2.15;89.39;150823.59;5113911;27;20444;-89
2021/01/15 08:39:44;;;;;;;10.70;7.40;;;;;;;-2.11;89.49;150835.09;5072259;28;20446;-90
2021/01/15 08:42:20;;;;;;;12.33;8.30;;;;;;;-2.14;89.20;150827.41;5068552;28;20466;-90
2021/01/15 08:44:57;;;;;;;12.57;7.73;;;;;;;-2.15;88.52;150824.88;5092332;28;20459;-92
2021/01/15 08:47:33;;;;;;;9.17;6.77;;;;;;;-2.27;88.80;150792.81;5086701;28;20438;-91
2021/01/15 08:50:11;;;;;;;10.77;7.30;;;;;;;-2.24;89.18;150800.50;5072744;28;20447;-91
2021/01/15 08:52:48;;;;;;;12.07;8.20;;;;;;;-2.13;90.07;150828.69;5070591;28;20806;-90
2021/01/15 08:55:23;;;;;;;12.17;7.97;;;;;;;-2.04;89.48;150853.00;5082748;28;20465;-92
2021/01/15 08:58:04;;;;;;;11.60;7.80;;;;;;;-1.95;89.16;150874.78;5062699;28;20976;-91
2021/01/15 09:00:40;;;;;;;10.80;7.40;;;;;;;-1.89;89.09;150890.19;5089427;28;20454;-83
2021/01/15 09:03:16;;;;;;;11.70;7.47;;;;;;;-1.89;88.01;150890.19;5035608;28;20446;-90
2021/01/15 09:05:51;;;;;;;8.40;6.67;;;;;;;-1.83;87.45;150906.81;5062710;28;20520;-92
2021/01/15 09:08:28;;;;;;;12.43;7.57;;;;;;;-1.87;87.00;150896.59;5091243;28;20430;-92
2021/01/15 09:11:04;;;;;;;11.17;7.27;;;;;;;-1.87;87.35;150895.28;5092835;28;20848;-92
2021/01/15 09:13:40;;;;;;;8.70;7.80;;;;;;;-1.84;87.86;150902.97;4992316;28;20439;-91
2021/01/15 09:16:17;;;;;;;13.33;8.37;;;;;;;-1.80;87.78;150913.22;5077913;28;20463;-92
2021/01/15 09:18:53;;;;;;;10.00;7.43;;;;;;;-1.83;86.62;150904.28;5079600;28;20443;-92
2021/01/15 09:21:29;;;;;;;15.83;9.90;;;;;;;-1.78;87.13;150918.38;5079213;28;20934;-92
2021/01/15 09:24:06;;;;;;;9.87;7.40;;;;;;;-1.79;87.05;150914.50;5078943;28;20437;-93
2021/01/15 09:26:56;;;;;;;11.97;7.93;;;;;;;-1.60;86.03;150963.19;5010503;28;20462;-92
2021/01/15 09:29:34;;;;;;;9.33;7.20;;;;;;;-1.55;87.69;150977.28;5072065;28;20443;-77
2021/01/15 09:32:10;;;;;;;10.47;6.97;;;;;;;-1.57;86.33;150972.19;5092312;28;20884;-77
2021/01/15 09:34:45;;;;;;;11.80;7.87;;;;;;;-1.51;85.56;150987.53;5013124;28;20436;-77
2021/01/15 09:37:20;;;;;;;12.73;8.03;;;;;;;-1.48;85.47;150995.22;5077196;28;20464;-77
2021/01/15 09:39:57;;;;;;;13.27;8.67;;;;;;;-1.49;85.12;150992.69;5076808;28;20444;-77
2021/01/15 09:42:32;;;;;;;11.70;8.30;;;;;;;-1.42;85.40;151009.31;5062625;28;20443;-77
2021/01/15 09:45:08;;;;;;;14.10;7.90;;;;;;;-1.40;86.59;151015.72;5031474;28;20447;-77
2021/01/15 09:47:45;;;;;;;16.50;8.70;;;;;;;-1.33;86.41;151032.41;5090779;28;20439;-77
2021/01/15 09:50:20;;;;;;;12.40;8.37;;;;;;;-1.27;85.32;151047.75;5075626;28;20503;-92
2021/01/15 09:52:56;;;;;;;11.87;8.27;;;;;;;-1.17;84.50;151072.13;5069559;28;20452;-90
2021/01/15 09:55:32;;;;;;;12.63;8.60;;;;;;;-1.12;85.33;151084.97;5077362;28;20444;-92
2021/01/15 09:58:08;;;;;;;10.30;7.53;;;;;;;-1.06;85.24;151100.34;5084248;28;20514;-90
2021/01/15 10:00:43;;;;;;;10.37;7.90;;;;;;;-1.18;84.10;151069.56;5087080;28;20802;-91
2021/01/15 10:03:21;;;;;;;12.07;7.70;;;;;;;-1.15;83.97;151077.25;5082554;28;20434;-90
2021/01/15 10:05:57;;;;;;;15.40;8.50;;;;;;;-1.34;83.51;151031.13;5086579;28;20425;-91
2021/01/15 10:08:33;;;;;;;15.37;8.47;;;;;;;-1.49;84.38;150992.69;5103028;28;20529;-91
2021/01/15 10:11:10;;;;;;;15.10;9.80;;;;;;;-1.40;86.57;151015.72;5073881;28;20446;-77
2021/01/15 10:13:45;;;;;;;13.27;9.03;;;;;;;-1.46;83.75;151000.38;5087272;28;20546;-77
2021/01/15 10:16:21;;;;;;;10.50;7.77;;;;;;;-1.43;84.84;151008.03;5082429;28;20473;-77
2021/01/15 10:18:57;;;;;;;10.80;7.23;;;;;;;-1.33;84.64;151032.41;5065660;28;20437;-77
2021/01/15 10:21:32;;;;;;;11.47;8.57;;;;;;;-1.38;83.77;151019.59;5096630;27;20433;-77
2021/01/15 10:24:09;;;;;;;10.50;7.73;;;;;;;-1.35;84.93;151028.53;5063513;28;20439;-77
2021/01/15 10:26:46;;;;;;;9.20;6.90;;;;;;;-1.43;83.41;151008.03;5057718;28;20750;-77
2021/01/15 10:29:22;;;;;;;12.93;8.00;;;;;;;-1.41;84.53;151013.19;5068684;28;20478;-77
2021/01/15 10:31:59;;;;;;;13.57;7.90;;;;;;;-1.42;84.01;151009.31;5071708;28;21289;-77
2021/01/15 10:34:37;;;;;;;11.97;7.60;;;;;;;-1.39;84.25;151017.03;5093642;27;20837;-77
2021/01/15 10:37:13;;;;;;;9.47;7.70;;;;;;;-1.31;85.32;151038.81;5081906;28;20468;-77
2021/01/15 10:39:49;;;;;;;10.23;8.30;;;;;;;-1.26;84.09;151050.34;5072501;27;20564;-77
2021/01/15 10:42:27;;;;;;;9.97;8.00;;;;;;;-1.14;84.33;151079.84;5059528;28;20426;-77
2021/01/15 10:45:05;;;;;;;9.70;7.50;;;;;;;-1.07;83.80;151097.78;5076156;28;20443;-77
2021/01/15 10:47:41;;;;;;;12.30;8.40;;;;;;;-1.30;82.79;151041.34;5091307;28;20467;-77
2021/01/15 10:50:19;;;;;;;12.37;7.43;;;;;;;-1.26;83.50;151050.34;5063797;28;20441;-77
2021/01/15 10:52:55;;;;;;;12.80;8.90;;;;;;;-1.18;83.61;151069.56;5075657;28;20992;-77
2021/01/15 10:55:31;;;;;;;11.53;8.47;;;;;;;-1.14;84.32;151079.84;5081888;28;20432;-77
2021/01/15 10:58:08;;;;;;;13.40;8.77;;;;;;;-1.14;83.75;151081.13;5073120;28;20880;-77
2021/01/15 11:00:44;;;;;;;13.60;9.30;;;;;;;-1.15;83.26;151077.25;5076275;28;20826;-77
2021/01/15 11:03:19;;;;;;;10.40;8.00;;;;;;;-1.15;83.08;151077.25;5068082;28;20471;-77
2021/01/15 11:05:55;;;;;;;14.27;8.20;;;;;;;-1.17;82.91;151072.13;5070787;28;20438;-77
2021/01/15 11:08:32;;;;;;;11.70;8.50;;;;;;;-1.05;83.56;151102.88;5071559;28;20474;-77
2021/01/15 11:11:07;;;;;;;10.87;7.67;;;;;;;-0.96;82.16;151125.97;5088692;28;20470;-77
2021/01/15 11:13:43;;;;;;;10.53;7.60;;;;;;;-0.95;82.35;151128.50;5029704;28;20443;-77
2021/01/15 11:16:18;;;;;;;10.70;8.03;;;;;;;-1.04;81.35;151105.47;5095785;28;20469;-77
2021/01/15 11:18:54;;;;;;;9.50;7.50;;;;;;;-0.93;82.38;151134.97;5048423;28;20468;-77
2021/01/15 11:21:29;;;;;;;9.37;7.10;;;;;;;-1.02;80.75;151110.59;5095484;28;20475;-77
2021/01/15 11:24:06;;;;;;;10.17;7.50;;;;;;;-0.99;82.24;151118.28;5078505;28;20886;-77
2021/01/15 11:26:41;;;;;;;10.17;7.13;;;;;;;-0.85;82.00;151154.19;5076460;28;20448;-77
2021/01/15 11:29:17;;;;;;;12.00;8.40;;;;;;;-0.93;82.15;151134.97;5084957;28;20803;-76
2021/01/15 11:31:52;;;;;;;10.63;7.53;;;;;;;-0.83;81.11;151160.59;5070379;28;20558;-76
2021/01/15 11:34:27;;;;;;;11.83;7.60;;;;;;;-0.91;80.31;151138.78;5082112;28;20953;-76
2021/01/15 11:37:03;;;;;;;14.43;8.60;;;;;;;-0.77;81.70;151174.72;5073401;28;20468;-77
2021/01/15 11:39:38;;;;;;;9.93;7.47;;;;;;;-0.70;80.30;151192.66;5057643;28;20444;-77
2021/01/15 11:42:13;;;;;;;13.40;8.17;;;;;;;-0.67;80.08;151200.34;5086925;28;20446;-77
2021/01/15 11:44:49;;;;;;;10.93;7.47;;;;;;;-0.64;80.68;151208.06;5080335;28;20510;-77
2021/01/15 11:47:24;;;;;;;12.03;9.00;;;;;;;-0.62;80.53;151214.47;5075634;28;20781;-77
2021/01/15 11:50:01;;;;;;;12.30;8.57;;;;;;;-0.70;79.92;151192.66;5068387;28;20444;-77
2021/01/15 11:52:37;;;;;;;11.83;7.70;;;;;;;-0.68;79.92;151199.06;5087981;28;20437;-77
2021/01/15 11:55:13;;;;;;;11.53;8.70;;;;;;;-0.61;81.33;151215.75;5073762;28;20541;-77
2021/01/15 11:58:02;;;;;;;11.47;8.70;;;;;;;-0.59;81.27;151220.88;5077950;28;20460;-77
2021/01/15 12:00:39;;;;;;;10.40;7.57;;;;;;;-0.64;80.32;151209.28;5094395;28;20437;-77
2021/01/15 12:03:14;;;;;;;9.77;7.70;;;;;;;-0.53;80.52;151236.22;5077500;28;20926;-77
2021/01/15 12:05:50;;;;;;;12.43;9.13;;;;;;;-0.51;81.43;151240.09;5061064;28;20597;-77
2021/01/15 12:08:26;;;;;;;11.33;7.63;;;;;;;-0.55;82.10;151231.13;5063118;28;20936;-77
2021/01/15 12:11:03;;;;;;;13.50;9.00;;;;;;;-0.60;79.70;151218.28;5091196;28;20441;-76